Airfield :
LOGIN :

Register | Disclaimer

   EN    FR    IT 

 










Legend :    VFR   Marginal VFR   IFR   Intensive IFR   Very Intensive IFR
Visi :
Ceiling :
>= 8 km
>= 3000ft
5 to 8 km
1000 to 3000 ft
1500m to 5 km
500 to 1000 ft
800 to 1500m
200 to 500 ft
< 800m
< 200 ft
Symbols :   Thunderstorms  Fog  Heavy snow  Heavy precipitations  Wind > 20 kt
SIGMETs :     Misc.  Thunderstorms  Icing  Turbulence  Mountain Waves  Volcanic Ashes






- Airport Elevation : 1568 ft


ETSB - Büchel AB

CURRENT METAR :
  • 291332Z 22027G43KT 7000 SHRA SQ SCT015CB BKN023 OVC100 09/06 Q0991 WHT FCST CANCEL

EXPIRED METARs :
  • 291320Z 21022G44KT 7000 -SHRA SQ SCT015CB BKN023 OVC100 09/06 Q0990 RERA WHT WHT
  • 291239Z 21023KT 7000 -SHRA FEW015 BKN026 OVC140 11/05 Q0991 WHT WHT
  • 291220Z 21022G33KT 9999 FEW020 BKN034 BKN140 10/04 Q0991 BLU BLU
  • 291120Z 20015G27KT 9999 FEW020 SCT060 BKN160 10/04 Q0993 BLU BLU

TAF AMD TAF ETSB
Valid from the 29 at 12:00 until the 29 at 21:00 UTC


291257Z 2912/2921 22020G30KT 9999 NSW FEW025 BKN030
TEMPO 2912/2915 22020G35KT 5000 -SHRA SCT015 BKN025
BECMG 2914/2915 22020G40KT 8000 NSW SCT020 BKN040
TEMPO 2915/2917 23020G50KT 3000 +SHRA BKN006 BKN020
BECMG 2917/2918 23015G25KT 9999 NSW SCT040 BY ETGL



MET'MAP, your aeronautical weather chart ! - Copyright ORBIFLY December 2007 - Disclaimer

ORBIFLY MET'MAP TEAM :

Programming & Development : Alexandra Zaïnal
Concept & original design : Baudouin d'Aumeries
Assistance for programming : Marc-Olivier Méhu
Technical & hardware support : Manuel Goepfert

Contact : metmap@orbifly.com




SOURCES & CREDITS :

   NOAA